sensor_id;sensor_type;location;lat;lon;timestamp;P1;durP1;ratioP1;P2;durP2;ratioP2
24159;SDS011;62385;41.594;23.808;2023-04-25T00:02:18;1.77;;;0.90;;
24159;SDS011;62385;41.594;23.808;2023-04-25T00:04:44;0.73;;;0.52;;
24159;SDS011;62385;41.594;23.808;2023-04-25T00:07:10;0.43;;;0.35;;
24159;SDS011;62385;41.594;23.808;2023-04-25T00:09:36;0.75;;;0.43;;
24159;SDS011;62385;41.594;23.808;2023-04-25T00:12:02;2.58;;;0.50;;
24159;SDS011;62385;41.594;23.808;2023-04-25T00:14:28;0.50;;;0.40;;
24159;SDS011;62385;41.594;23.808;2023-04-25T00:16:54;1.95;;;0.50;;
24159;SDS011;62385;41.594;23.808;2023-04-25T00:19:20;0.70;;;0.60;;
24159;SDS011;62385;41.594;23.808;2023-04-25T00:21:45;0.65;;;0.28;;
24159;SDS011;62385;41.594;23.808;2023-04-25T00:24:11;0.40;;;0.30;;
24159;SDS011;62385;41.594;23.808;2023-04-25T00:26:37;0.40;;;0.32;;
24159;SDS011;62385;41.594;23.808;2023-04-25T00:29:03;0.52;;;0.20;;
24159;SDS011;62385;41.594;23.808;2023-04-25T00:31:29;0.60;;;0.40;;
24159;SDS011;62385;41.594;23.808;2023-04-25T00:33:54;1.15;;;0.60;;
24159;SDS011;62385;41.594;23.808;2023-04-25T00:36:20;0.38;;;0.25;;
24159;SDS011;62385;41.594;23.808;2023-04-25T00:38:47;0.40;;;0.35;;
24159;SDS011;62385;41.594;23.808;2023-04-25T00:41:12;1.10;;;0.75;;
24159;SDS011;62385;41.594;23.808;2023-04-25T00:43:38;0.43;;;0.35;;
24159;SDS011;62385;41.594;23.808;2023-04-25T00:46:05;0.82;;;0.40;;
24159;SDS011;62385;41.594;23.808;2023-04-25T00:48:31;0.60;;;0.30;;
24159;SDS011;62385;41.594;23.808;2023-04-25T00:50:57;0.95;;;0.60;;
24159;SDS011;62385;41.594;23.808;2023-04-25T00:53:24;0.52;;;0.22;;
24159;SDS011;62385;41.594;23.808;2023-04-25T00:55:52;0.40;;;0.40;;
24159;SDS011;62385;41.594;23.808;2023-04-25T00:58:20;0.85;;;0.52;;
24159;SDS011;62385;41.594;23.808;2023-04-25T01:00:47;1.23;;;0.32;;
24159;SDS011;62385;41.594;23.808;2023-04-25T01:03:15;3.58;;;0.82;;
24159;SDS011;62385;41.594;23.808;2023-04-25T01:05:44;0.60;;;0.50;;
24159;SDS011;62385;41.594;23.808;2023-04-25T01:08:12;0.57;;;0.40;;
24159;SDS011;62385;41.594;23.808;2023-04-25T01:10:38;0.40;;;0.30;;
24159;SDS011;62385;41.594;23.808;2023-04-25T01:13:03;0.90;;;0.77;;
24159;SDS011;62385;41.594;23.808;2023-04-25T01:15:29;0.22;;;0.15;;
24159;SDS011;62385;41.594;23.808;2023-04-25T01:17:56;0.95;;;0.60;;
24159;SDS011;62385;41.594;23.808;2023-04-25T01:20:23;0.40;;;0.20;;
24159;SDS011;62385;41.594;23.808;2023-04-25T01:22:50;3.45;;;0.88;;
24159;SDS011;62385;41.594;23.808;2023-04-25T01:25:17;0.98;;;0.90;;
24159;SDS011;62385;41.594;23.808;2023-04-25T01:27:44;0.75;;;0.55;;
24159;SDS011;62385;41.594;23.808;2023-04-25T01:30:10;1.70;;;0.80;;
24159;SDS011;62385;41.594;23.808;2023-04-25T01:32:37;0.32;;;0.20;;
24159;SDS011;62385;41.594;23.808;2023-04-25T01:35:06;1.67;;;0.55;;
24159;SDS011;62385;41.594;23.808;2023-04-25T01:37:38;0.50;;;0.47;;
24159;SDS011;62385;41.594;23.808;2023-04-25T01:40:04;1.85;;;0.70;;
24159;SDS011;62385;41.594;23.808;2023-04-25T01:42:35;0.40;;;0.30;;
24159;SDS011;62385;41.594;23.808;2023-04-25T01:45:03;0.30;;;0.20;;
24159;SDS011;62385;41.594;23.808;2023-04-25T01:47:30;0.40;;;0.40;;
24159;SDS011;62385;41.594;23.808;2023-04-25T01:49:56;0.82;;;0.50;;
24159;SDS011;62385;41.594;23.808;2023-04-25T01:52:22;1.00;;;0.40;;
24159;SDS011;62385;41.594;23.808;2023-04-25T01:54:49;0.70;;;0.43;;
24159;SDS011;62385;41.594;23.808;2023-04-25T01:57:16;0.77;;;0.52;;
24159;SDS011;62385;41.594;23.808;2023-04-25T01:59:43;2.08;;;0.65;;
24159;SDS011;62385;41.594;23.808;2023-04-25T02:02:20;0.95;;;0.60;;
24159;SDS011;62385;41.594;23.808;2023-04-25T02:04:47;0.85;;;0.52;;
24159;SDS011;62385;41.594;23.808;2023-04-25T02:07:15;2.40;;;0.80;;
24159;SDS011;62385;41.594;23.808;2023-04-25T02:09:49;0.30;;;0.20;;
24159;SDS011;62385;41.594;23.808;2023-04-25T02:12:17;0.63;;;0.35;;
24159;SDS011;62385;41.594;23.808;2023-04-25T02:15:14;1.38;;;0.65;;
24159;SDS011;62385;41.594;23.808;2023-04-25T02:17:50;0.63;;;0.50;;
24159;SDS011;62385;41.594;23.808;2023-04-25T02:20:19;0.82;;;0.47;;
24159;SDS011;62385;41.594;23.808;2023-04-25T02:22:48;1.63;;;0.70;;
24159;SDS011;62385;41.594;23.808;2023-04-25T02:25:14;0.45;;;0.28;;
24159;SDS011;62385;41.594;23.808;2023-04-25T02:27:41;0.93;;;0.50;;
24159;SDS011;62385;41.594;23.808;2023-04-25T02:30:07;1.15;;;0.60;;
24159;SDS011;62385;41.594;23.808;2023-04-25T02:32:34;3.50;;;0.88;;
24159;SDS011;62385;41.594;23.808;2023-04-25T02:35:01;3.03;;;1.25;;
24159;SDS011;62385;41.594;23.808;2023-04-25T02:37:31;1.58;;;1.38;;
24159;SDS011;62385;41.594;23.808;2023-04-25T02:40:00;4.07;;;1.45;;
24159;SDS011;62385;41.594;23.808;2023-04-25T02:42:26;2.03;;;1.33;;
24159;SDS011;62385;41.594;23.808;2023-04-25T02:44:52;1.80;;;0.60;;
24159;SDS011;62385;41.594;23.808;2023-04-25T02:47:19;1.65;;;0.95;;
24159;SDS011;62385;41.594;23.808;2023-04-25T02:49:45;4.53;;;0.65;;
24159;SDS011;62385;41.594;23.808;2023-04-25T02:52:11;2.67;;;0.88;;
24159;SDS011;62385;41.594;23.808;2023-04-25T02:54:37;0.70;;;0.68;;
24159;SDS011;62385;41.594;23.808;2023-04-25T02:57:03;1.23;;;0.88;;
24159;SDS011;62385;41.594;23.808;2023-04-25T02:59:34;0.80;;;0.60;;
24159;SDS011;62385;41.594;23.808;2023-04-25T03:02:00;1.60;;;1.00;;
24159;SDS011;62385;41.594;23.808;2023-04-25T03:04:27;0.50;;;0.47;;
24159;SDS011;62385;41.594;23.808;2023-04-25T03:06:54;1.30;;;0.50;;
24159;SDS011;62385;41.594;23.808;2023-04-25T03:09:20;4.30;;;0.63;;
24159;SDS011;62385;41.594;23.808;2023-04-25T03:11:46;0.80;;;0.70;;
24159;SDS011;62385;41.594;23.808;2023-04-25T03:14:12;0.40;;;0.20;;
24159;SDS011;62385;41.594;23.808;2023-04-25T03:16:38;1.05;;;0.77;;
24159;SDS011;62385;41.594;23.808;2023-04-25T03:19:04;1.27;;;0.68;;
24159;SDS011;62385;41.594;23.808;2023-04-25T03:21:32;0.43;;;0.43;;
24159;SDS011;62385;41.594;23.808;2023-04-25T03:23:58;5.60;;;0.88;;
24159;SDS011;62385;41.594;23.808;2023-04-25T03:26:25;0.80;;;0.80;;
24159;SDS011;62385;41.594;23.808;2023-04-25T03:28:51;1.15;;;0.60;;
24159;SDS011;62385;41.594;23.808;2023-04-25T03:31:17;2.58;;;1.20;;
24159;SDS011;62385;41.594;23.808;2023-04-25T03:33:42;2.47;;;0.50;;
24159;SDS011;62385;41.594;23.808;2023-04-25T03:36:08;1.95;;;0.65;;
24159;SDS011;62385;41.594;23.808;2023-04-25T03:38:35;3.85;;;1.33;;
24159;SDS011;62385;41.594;23.808;2023-04-25T03:41:01;1.20;;;0.80;;
24159;SDS011;62385;41.594;23.808;2023-04-25T03:43:47;0.70;;;0.55;;
24159;SDS011;62385;41.594;23.808;2023-04-25T03:46:15;0.68;;;0.32;;
24159;SDS011;62385;41.594;23.808;2023-04-25T03:48:41;0.50;;;0.43;;
24159;SDS011;62385;41.594;23.808;2023-04-25T03:51:10;3.45;;;1.80;;
24159;SDS011;62385;41.594;23.808;2023-04-25T03:53:39;5.75;;;2.17;;
24159;SDS011;62385;41.594;23.808;2023-04-25T03:56:25;1.75;;;1.52;;
24159;SDS011;62385;41.594;23.808;2023-04-25T03:59:00;3.83;;;2.22;;
24159;SDS011;62385;41.594;23.808;2023-04-25T04:01:28;2.45;;;1.65;;
24159;SDS011;62385;41.594;23.808;2023-04-25T04:03:54;2.15;;;1.95;;
24159;SDS011;62385;41.594;23.808;2023-04-25T04:06:20;3.13;;;2.00;;
24159;SDS011;62385;41.594;23.808;2023-04-25T04:08:50;6.03;;;2.88;;
24159;SDS011;62385;41.594;23.808;2023-04-25T04:11:16;15.48;;;2.10;;
24159;SDS011;62385;41.594;23.808;2023-04-25T04:13:41;5.53;;;2.90;;
24159;SDS011;62385;41.594;23.808;2023-04-25T04:16:08;2.00;;;1.50;;
24159;SDS011;62385;41.594;23.808;2023-04-25T04:18:34;1.70;;;1.08;;
24159;SDS011;62385;41.594;23.808;2023-04-25T04:21:01;2.38;;;1.13;;
24159;SDS011;62385;41.594;23.808;2023-04-25T04:23:29;8.93;;;3.85;;
24159;SDS011;62385;41.594;23.808;2023-04-25T04:25:56;12.88;;;4.05;;
24159;SDS011;62385;41.594;23.808;2023-04-25T04:28:42;8.38;;;3.17;;
24159;SDS011;62385;41.594;23.808;2023-04-25T04:31:16;8.93;;;5.45;;
24159;SDS011;62385;41.594;23.808;2023-04-25T04:33:45;3.67;;;1.88;;
24159;SDS011;62385;41.594;23.808;2023-04-25T04:36:13;4.72;;;2.72;;
24159;SDS011;62385;41.594;23.808;2023-04-25T04:38:39;2.85;;;1.25;;
24159;SDS011;62385;41.594;23.808;2023-04-25T04:41:15;1.77;;;1.40;;
24159;SDS011;62385;41.594;23.808;2023-04-25T04:43:58;6.90;;;4.70;;
24159;SDS011;62385;41.594;23.808;2023-04-25T04:46:53;4.15;;;2.90;;
24159;SDS011;62385;41.594;23.808;2023-04-25T04:49:29;1.95;;;1.15;;
24159;SDS011;62385;41.594;23.808;2023-04-25T04:52:08;5.10;;;0.52;;
24159;SDS011;62385;41.594;23.808;2023-04-25T04:55:02;0.82;;;0.30;;
24159;SDS011;62385;41.594;23.808;2023-04-25T04:57:58;2.72;;;1.60;;
24159;SDS011;62385;41.594;23.808;2023-04-25T05:00:38;2.50;;;0.70;;
24159;SDS011;62385;41.594;23.808;2023-04-25T05:03:12;1.90;;;1.15;;
24159;SDS011;62385;41.594;23.808;2023-04-25T05:05:59;2.13;;;1.42;;
24159;SDS011;62385;41.594;23.808;2023-04-25T05:08:32;2.13;;;1.10;;
24159;SDS011;62385;41.594;23.808;2023-04-25T05:11:17;1.05;;;0.73;;
24159;SDS011;62385;41.594;23.808;2023-04-25T05:14:09;1.00;;;0.20;;
24159;SDS011;62385;41.594;23.808;2023-04-25T05:16:53;0.60;;;0.40;;
24159;SDS011;62385;41.594;23.808;2023-04-25T05:19:41;7.30;;;3.50;;
24159;SDS011;62385;41.594;23.808;2023-04-25T05:22:30;30.55;;;13.88;;
24159;SDS011;62385;41.594;23.808;2023-04-25T05:25:18;22.23;;;10.27;;
24159;SDS011;62385;41.594;23.808;2023-04-25T05:28:07;3.75;;;2.30;;
24159;SDS011;62385;41.594;23.808;2023-04-25T05:30:42;2.45;;;1.77;;
24159;SDS011;62385;41.594;23.808;2023-04-25T05:33:13;1.90;;;1.42;;
24159;SDS011;62385;41.594;23.808;2023-04-25T05:35:38;1.50;;;0.93;;
24159;SDS011;62385;41.594;23.808;2023-04-25T05:38:04;6.32;;;2.90;;
24159;SDS011;62385;41.594;23.808;2023-04-25T05:40:50;2.75;;;2.10;;
24159;SDS011;62385;41.594;23.808;2023-04-25T05:43:34;4.47;;;2.60;;
24159;SDS011;62385;41.594;23.808;2023-04-25T05:46:20;3.70;;;2.53;;
24159;SDS011;62385;41.594;23.808;2023-04-25T05:49:23;2.97;;;2.08;;
24159;SDS011;62385;41.594;23.808;2023-04-25T05:52:18;3.72;;;2.00;;
24159;SDS011;62385;41.594;23.808;2023-04-25T05:55:02;4.03;;;1.45;;
24159;SDS011;62385;41.594;23.808;2023-04-25T05:57:29;2.67;;;1.45;;
24159;SDS011;62385;41.594;23.808;2023-04-25T05:59:55;1.20;;;0.93;;
24159;SDS011;62385;41.594;23.808;2023-04-25T06:02:38;3.25;;;1.17;;
24159;SDS011;62385;41.594;23.808;2023-04-25T06:05:05;2.90;;;1.48;;
24159;SDS011;62385;41.594;23.808;2023-04-25T06:07:31;4.15;;;1.35;;
24159;SDS011;62385;41.594;23.808;2023-04-25T06:09:58;1.90;;;0.98;;
24159;SDS011;62385;41.594;23.808;2023-04-25T06:12:24;1.77;;;0.93;;
24159;SDS011;62385;41.594;23.808;2023-04-25T06:14:51;1.80;;;1.17;;
24159;SDS011;62385;41.594;23.808;2023-04-25T06:17:17;8.25;;;2.00;;
24159;SDS011;62385;41.594;23.808;2023-04-25T06:19:44;1.65;;;1.38;;
24159;SDS011;62385;41.594;23.808;2023-04-25T06:22:11;1.73;;;1.27;;
24159;SDS011;62385;41.594;23.808;2023-04-25T06:24:39;5.30;;;1.65;;
24159;SDS011;62385;41.594;23.808;2023-04-25T06:27:05;1.10;;;1.00;;
24159;SDS011;62385;41.594;23.808;2023-04-25T06:29:33;1.77;;;1.40;;
24159;SDS011;62385;41.594;23.808;2023-04-25T06:32:40;2.00;;;0.93;;
24159;SDS011;62385;41.594;23.808;2023-04-25T06:36:09;0.73;;;0.73;;
24159;SDS011;62385;41.594;23.808;2023-04-25T06:58:40;1.65;;;1.52;;
24159;SDS011;62385;41.594;23.808;2023-04-25T07:01:18;3.92;;;2.65;;
24159;SDS011;62385;41.594;23.808;2023-04-25T07:03:44;2.65;;;1.70;;
24159;SDS011;62385;41.594;23.808;2023-04-25T07:06:55;1.35;;;1.13;;
24159;SDS011;62385;41.594;23.808;2023-04-25T07:41:49;1.88;;;0.90;;
24159;SDS011;62385;41.594;23.808;2023-04-25T07:44:21;0.85;;;0.73;;
24159;SDS011;62385;41.594;23.808;2023-04-25T07:46:47;2.75;;;1.20;;
24159;SDS011;62385;41.594;23.808;2023-04-25T07:49:12;1.40;;;0.77;;
24159;SDS011;62385;41.594;23.808;2023-04-25T07:51:41;1.38;;;0.90;;
24159;SDS011;62385;41.594;23.808;2023-04-25T07:54:12;1.65;;;0.98;;
24159;SDS011;62385;41.594;23.808;2023-04-25T07:56:44;4.13;;;1.45;;
24159;SDS011;62385;41.594;23.808;2023-04-25T07:59:11;1.65;;;1.02;;
24159;SDS011;62385;41.594;23.808;2023-04-25T08:01:38;1.50;;;1.00;;
24159;SDS011;62385;41.594;23.808;2023-04-25T08:04:06;3.75;;;1.67;;
24159;SDS011;62385;41.594;23.808;2023-04-25T08:06:49;0.95;;;0.80;;
24159;SDS011;62385;41.594;23.808;2023-04-25T08:09:22;1.35;;;1.05;;
24159;SDS011;62385;41.594;23.808;2023-04-25T08:11:48;1.65;;;1.08;;
24159;SDS011;62385;41.594;23.808;2023-04-25T08:14:16;1.50;;;1.00;;
24159;SDS011;62385;41.594;23.808;2023-04-25T08:16:43;1.25;;;1.05;;
24159;SDS011;62385;41.594;23.808;2023-04-25T08:19:09;1.73;;;1.00;;
24159;SDS011;62385;41.594;23.808;2023-04-25T08:21:37;3.72;;;1.30;;
24159;SDS011;62385;41.594;23.808;2023-04-25T08:24:07;2.50;;;1.67;;
24159;SDS011;62385;41.594;23.808;2023-04-25T08:26:36;1.08;;;0.88;;
24159;SDS011;62385;41.594;23.808;2023-04-25T08:29:04;2.40;;;1.20;;
24159;SDS011;62385;41.594;23.808;2023-04-25T08:31:30;1.95;;;1.30;;
24159;SDS011;62385;41.594;23.808;2023-04-25T08:34:00;3.97;;;1.00;;
24159;SDS011;62385;41.594;23.808;2023-04-25T08:36:42;2.03;;;1.15;;
24159;SDS011;62385;41.594;23.808;2023-04-25T08:39:27;2.60;;;1.38;;
24159;SDS011;62385;41.594;23.808;2023-04-25T08:42:25;1.42;;;0.70;;
24159;SDS011;62385;41.594;23.808;2023-04-25T08:44:53;0.73;;;0.60;;
24159;SDS011;62385;41.594;23.808;2023-04-25T08:47:19;0.85;;;0.82;;
24159;SDS011;62385;41.594;23.808;2023-04-25T08:49:51;1.60;;;0.75;;
24159;SDS011;62385;41.594;23.808;2023-04-25T08:52:21;5.70;;;1.38;;
24159;SDS011;62385;41.594;23.808;2023-04-25T08:54:49;13.57;;;1.75;;
24159;SDS011;62385;41.594;23.808;2023-04-25T08:57:17;0.70;;;0.65;;
24159;SDS011;62385;41.594;23.808;2023-04-25T08:59:44;1.30;;;0.75;;
24159;SDS011;62385;41.594;23.808;2023-04-25T09:02:11;1.45;;;1.00;;
24159;SDS011;62385;41.594;23.808;2023-04-25T09:04:42;2.58;;;1.33;;
24159;SDS011;62385;41.594;23.808;2023-04-25T09:07:10;1.95;;;1.50;;
24159;SDS011;62385;41.594;23.808;2023-04-25T09:09:36;2.53;;;1.23;;
24159;SDS011;62385;41.594;23.808;2023-04-25T09:12:01;0.50;;;0.40;;
24159;SDS011;62385;41.594;23.808;2023-04-25T09:14:27;2.65;;;1.23;;
24159;SDS011;62385;41.594;23.808;2023-04-25T09:17:00;1.92;;;1.73;;
24159;SDS011;62385;41.594;23.808;2023-04-25T09:19:46;3.13;;;1.08;;
24159;SDS011;62385;41.594;23.808;2023-04-25T09:22:25;3.80;;;1.27;;
24159;SDS011;62385;41.594;23.808;2023-04-25T09:24:52;1.75;;;1.17;;
24159;SDS011;62385;41.594;23.808;2023-04-25T09:27:20;2.53;;;1.73;;
24159;SDS011;62385;41.594;23.808;2023-04-25T09:29:58;1.20;;;1.08;;
24159;SDS011;62385;41.594;23.808;2023-04-25T09:32:44;1.20;;;0.93;;
24159;SDS011;62385;41.594;23.808;2023-04-25T09:35:10;1.38;;;0.98;;
24159;SDS011;62385;41.594;23.808;2023-04-25T09:37:49;4.00;;;1.40;;
24159;SDS011;62385;41.594;23.808;2023-04-25T09:40:39;1.13;;;0.47;;
24159;SDS011;62385;41.594;23.808;2023-04-25T09:43:22;1.13;;;0.85;;
24159;SDS011;62385;41.594;23.808;2023-04-25T09:45:50;3.90;;;1.38;;
24159;SDS011;62385;41.594;23.808;2023-04-25T09:48:21;1.10;;;0.70;;
24159;SDS011;62385;41.594;23.808;2023-04-25T09:53:44;1.17;;;0.80;;
24159;SDS011;62385;41.594;23.808;2023-04-25T09:56:32;1.48;;;0.52;;
24159;SDS011;62385;41.594;23.808;2023-04-25T09:59:03;1.05;;;0.80;;
24159;SDS011;62385;41.594;23.808;2023-04-25T10:01:32;1.55;;;0.80;;
24159;SDS011;62385;41.594;23.808;2023-04-25T10:04:19;0.77;;;0.45;;
24159;SDS011;62385;41.594;23.808;2023-04-25T10:07:12;0.60;;;0.43;;
24159;SDS011;62385;41.594;23.808;2023-04-25T10:09:43;1.13;;;0.60;;
24159;SDS011;62385;41.594;23.808;2023-04-25T10:12:14;1.75;;;1.20;;
24159;SDS011;62385;41.594;23.808;2023-04-25T10:14:42;1.73;;;0.60;;
24159;SDS011;62385;41.594;23.808;2023-04-25T10:17:08;0.90;;;0.50;;
24159;SDS011;62385;41.594;23.808;2023-04-25T10:19:36;0.47;;;0.32;;
24159;SDS011;62385;41.594;23.808;2023-04-25T10:22:08;1.50;;;0.73;;
24159;SDS011;62385;41.594;23.808;2023-04-25T10:24:41;0.70;;;0.55;;
24159;SDS011;62385;41.594;23.808;2023-04-25T10:27:07;0.43;;;0.43;;
24159;SDS011;62385;41.594;23.808;2023-04-25T10:29:33;0.40;;;0.40;;
24159;SDS011;62385;41.594;23.808;2023-04-25T10:32:00;0.30;;;0.30;;
24159;SDS011;62385;41.594;23.808;2023-04-25T10:34:42;0.55;;;0.55;;
24159;SDS011;62385;41.594;23.808;2023-04-25T10:37:13;0.80;;;0.70;;
24159;SDS011;62385;41.594;23.808;2023-04-25T10:39:39;0.93;;;0.52;;
24159;SDS011;62385;41.594;23.808;2023-04-25T10:42:09;0.45;;;0.40;;
24159;SDS011;62385;41.594;23.808;2023-04-25T10:44:34;0.43;;;0.43;;
24159;SDS011;62385;41.594;23.808;2023-04-25T10:47:03;0.38;;;0.32;;
24159;SDS011;62385;41.594;23.808;2023-04-25T10:49:32;0.40;;;0.38;;
24159;SDS011;62385;41.594;23.808;2023-04-25T10:52:18;0.65;;;0.55;;
24159;SDS011;62385;41.594;23.808;2023-04-25T10:54:49;0.50;;;0.35;;
24159;SDS011;62385;41.594;23.808;2023-04-25T11:00:00;0.75;;;0.43;;
24159;SDS011;62385;41.594;23.808;2023-04-25T11:02:33;0.40;;;0.35;;
24159;SDS011;62385;41.594;23.808;2023-04-25T11:05:05;0.47;;;0.40;;
24159;SDS011;62385;41.594;23.808;2023-04-25T11:10:09;1.08;;;0.90;;
24159;SDS011;62385;41.594;23.808;2023-04-25T11:12:35;0.45;;;0.30;;
24159;SDS011;62385;41.594;23.808;2023-04-25T11:15:02;0.65;;;0.30;;
24159;SDS011;62385;41.594;23.808;2023-04-25T11:17:29;0.50;;;0.50;;
24159;SDS011;62385;41.594;23.808;2023-04-25T11:19:56;0.70;;;0.45;;
24159;SDS011;62385;41.594;23.808;2023-04-25T11:22:22;0.52;;;0.30;;
24159;SDS011;62385;41.594;23.808;2023-04-25T11:24:49;0.68;;;0.65;;
24159;SDS011;62385;41.594;23.808;2023-04-25T11:27:15;0.35;;;0.20;;
24159;SDS011;62385;41.594;23.808;2023-04-25T11:29:41;0.65;;;0.38;;
24159;SDS011;62385;41.594;23.808;2023-04-25T11:32:07;0.43;;;0.35;;
24159;SDS011;62385;41.594;23.808;2023-04-25T11:34:33;0.40;;;0.40;;
24159;SDS011;62385;41.594;23.808;2023-04-25T11:37:00;0.57;;;0.50;;
24159;SDS011;62385;41.594;23.808;2023-04-25T11:39:27;1.20;;;0.40;;
24159;SDS011;62385;41.594;23.808;2023-04-25T11:41:53;0.30;;;0.25;;
24159;SDS011;62385;41.594;23.808;2023-04-25T11:44:20;0.20;;;0.20;;
24159;SDS011;62385;41.594;23.808;2023-04-25T11:46:52;0.60;;;0.50;;
24159;SDS011;62385;41.594;23.808;2023-04-25T11:49:18;0.82;;;0.40;;
24159;SDS011;62385;41.594;23.808;2023-04-25T11:51:47;0.88;;;0.50;;
24159;SDS011;62385;41.594;23.808;2023-04-25T11:54:28;0.63;;;0.40;;
24159;SDS011;62385;41.594;23.808;2023-04-25T12:01:26;0.68;;;0.35;;
24159;SDS011;62385;41.594;23.808;2023-04-25T12:11:00;1.05;;;0.45;;
24159;SDS011;62385;41.594;23.808;2023-04-25T12:13:28;3.08;;;0.93;;
24159;SDS011;62385;41.594;23.808;2023-04-25T12:15:56;1.25;;;0.60;;
24159;SDS011;62385;41.594;23.808;2023-04-25T12:18:25;0.63;;;0.40;;
24159;SDS011;62385;41.594;23.808;2023-04-25T12:20:53;0.43;;;0.20;;
24159;SDS011;62385;41.594;23.808;2023-04-25T12:23:26;0.30;;;0.20;;
24159;SDS011;62385;41.594;23.808;2023-04-25T12:25:53;0.20;;;0.13;;
24159;SDS011;62385;41.594;23.808;2023-04-25T12:28:23;0.47;;;0.40;;
24159;SDS011;62385;41.594;23.808;2023-04-25T12:33:28;0.52;;;0.52;;
24159;SDS011;62385;41.594;23.808;2023-04-25T12:35:56;0.55;;;0.32;;
24159;SDS011;62385;41.594;23.808;2023-04-25T12:38:30;1.27;;;0.52;;
24159;SDS011;62385;41.594;23.808;2023-04-25T12:40:57;4.95;;;0.30;;
24159;SDS011;62385;41.594;23.808;2023-04-25T12:43:23;0.40;;;0.25;;
24159;SDS011;62385;41.594;23.808;2023-04-25T12:45:53;0.63;;;0.55;;
24159;SDS011;62385;41.594;23.808;2023-04-25T12:48:21;0.50;;;0.32;;
24159;SDS011;62385;41.594;23.808;2023-04-25T12:50:47;0.40;;;0.28;;
24159;SDS011;62385;41.594;23.808;2023-04-25T12:53:15;0.38;;;0.25;;
24159;SDS011;62385;41.594;23.808;2023-04-25T12:55:46;0.28;;;0.25;;
24159;SDS011;62385;41.594;23.808;2023-04-25T12:58:12;1.05;;;0.40;;
24159;SDS011;62385;41.594;23.808;2023-04-25T13:00:39;1.27;;;0.75;;
24159;SDS011;62385;41.594;23.808;2023-04-25T13:03:05;1.73;;;0.43;;
24159;SDS011;62385;41.594;23.808;2023-04-25T13:05:34;0.30;;;0.30;;
24159;SDS011;62385;41.594;23.808;2023-04-25T13:08:00;0.38;;;0.30;;
24159;SDS011;62385;41.594;23.808;2023-04-25T13:10:26;0.35;;;0.35;;
24159;SDS011;62385;41.594;23.808;2023-04-25T13:12:52;2.42;;;0.77;;
24159;SDS011;62385;41.594;23.808;2023-04-25T13:15:17;0.20;;;0.15;;
24159;SDS011;62385;41.594;23.808;2023-04-25T13:17:43;0.38;;;0.30;;
24159;SDS011;62385;41.594;23.808;2023-04-25T13:20:10;0.40;;;0.30;;
24159;SDS011;62385;41.594;23.808;2023-04-25T13:22:36;0.25;;;0.10;;
24159;SDS011;62385;41.594;23.808;2023-04-25T13:25:04;0.47;;;0.28;;
24159;SDS011;62385;41.594;23.808;2023-04-25T13:27:32;0.20;;;0.20;;
24159;SDS011;62385;41.594;23.808;2023-04-25T13:30:00;0.20;;;0.10;;
24159;SDS011;62385;41.594;23.808;2023-04-25T13:32:29;0.65;;;0.30;;
24159;SDS011;62385;41.594;23.808;2023-04-25T13:34:55;0.40;;;0.40;;
24159;SDS011;62385;41.594;23.808;2023-04-25T13:37:27;0.40;;;0.30;;
24159;SDS011;62385;41.594;23.808;2023-04-25T13:39:58;1.60;;;0.65;;
24159;SDS011;62385;41.594;23.808;2023-04-25T13:42:25;2.67;;;0.50;;
24159;SDS011;62385;41.594;23.808;2023-04-25T13:44:50;0.57;;;0.40;;
24159;SDS011;62385;41.594;23.808;2023-04-25T13:47:16;0.20;;;0.10;;
24159;SDS011;62385;41.594;23.808;2023-04-25T13:49:41;1.58;;;1.10;;
24159;SDS011;62385;41.594;23.808;2023-04-25T13:52:07;0.70;;;0.47;;
24159;SDS011;62385;41.594;23.808;2023-04-25T13:54:33;2.38;;;1.10;;
24159;SDS011;62385;41.594;23.808;2023-04-25T13:56:58;6.85;;;3.00;;
24159;SDS011;62385;41.594;23.808;2023-04-25T13:59:24;3.10;;;0.70;;
24159;SDS011;62385;41.594;23.808;2023-04-25T14:01:51;1.45;;;0.47;;
24159;SDS011;62385;41.594;23.808;2023-04-25T14:04:16;0.75;;;0.55;;
24159;SDS011;62385;41.594;23.808;2023-04-25T14:06:42;1.75;;;0.68;;
24159;SDS011;62385;41.594;23.808;2023-04-25T14:09:08;0.30;;;0.20;;
24159;SDS011;62385;41.594;23.808;2023-04-25T14:11:38;0.60;;;0.57;;
24159;SDS011;62385;41.594;23.808;2023-04-25T14:14:04;0.30;;;0.30;;
24159;SDS011;62385;41.594;23.808;2023-04-25T14:16:30;0.30;;;0.28;;
24159;SDS011;62385;41.594;23.808;2023-04-25T14:18:59;0.25;;;0.20;;
24159;SDS011;62385;41.594;23.808;2023-04-25T14:21:25;0.32;;;0.30;;
24159;SDS011;62385;41.594;23.808;2023-04-25T14:23:52;1.38;;;0.85;;
24159;SDS011;62385;41.594;23.808;2023-04-25T14:26:18;0.45;;;0.45;;
24159;SDS011;62385;41.594;23.808;2023-04-25T14:28:43;0.98;;;0.50;;
24159;SDS011;62385;41.594;23.808;2023-04-25T14:31:10;1.85;;;0.95;;
24159;SDS011;62385;41.594;23.808;2023-04-25T14:33:35;1.35;;;0.82;;
24159;SDS011;62385;41.594;23.808;2023-04-25T14:36:03;0.65;;;0.55;;
24159;SDS011;62385;41.594;23.808;2023-04-25T14:38:28;0.70;;;0.70;;
24159;SDS011;62385;41.594;23.808;2023-04-25T14:40:54;0.55;;;0.38;;
24159;SDS011;62385;41.594;23.808;2023-04-25T14:43:20;0.60;;;0.43;;
24159;SDS011;62385;41.594;23.808;2023-04-25T14:45:45;1.85;;;0.52;;
24159;SDS011;62385;41.594;23.808;2023-04-25T14:48:11;0.68;;;0.52;;
24159;SDS011;62385;41.594;23.808;2023-04-25T14:50:37;1.15;;;0.50;;
24159;SDS011;62385;41.594;23.808;2023-04-25T14:53:03;0.60;;;0.40;;
24159;SDS011;62385;41.594;23.808;2023-04-25T14:55:29;1.30;;;0.68;;
24159;SDS011;62385;41.594;23.808;2023-04-25T14:57:54;0.30;;;0.20;;
24159;SDS011;62385;41.594;23.808;2023-04-25T15:00:21;7.20;;;2.42;;
24159;SDS011;62385;41.594;23.808;2023-04-25T15:02:50;0.40;;;0.30;;
24159;SDS011;62385;41.594;23.808;2023-04-25T15:05:17;1.13;;;0.82;;
24159;SDS011;62385;41.594;23.808;2023-04-25T15:07:43;0.38;;;0.30;;
24159;SDS011;62385;41.594;23.808;2023-04-25T15:10:09;0.50;;;0.35;;
24159;SDS011;62385;41.594;23.808;2023-04-25T15:12:39;0.82;;;0.63;;
24159;SDS011;62385;41.594;23.808;2023-04-25T15:15:13;0.50;;;0.22;;
24159;SDS011;62385;41.594;23.808;2023-04-25T15:18:15;0.65;;;0.52;;
24159;SDS011;62385;41.594;23.808;2023-04-25T15:20:40;0.50;;;0.25;;
24159;SDS011;62385;41.594;23.808;2023-04-25T15:23:06;0.40;;;0.25;;
24159;SDS011;62385;41.594;23.808;2023-04-25T15:25:35;0.60;;;0.40;;
24159;SDS011;62385;41.594;23.808;2023-04-25T15:28:01;0.20;;;0.10;;
24159;SDS011;62385;41.594;23.808;2023-04-25T15:30:27;0.30;;;0.20;;
24159;SDS011;62385;41.594;23.808;2023-04-25T15:32:53;0.20;;;0.10;;
24159;SDS011;62385;41.594;23.808;2023-04-25T15:35:19;0.38;;;0.20;;
24159;SDS011;62385;41.594;23.808;2023-04-25T15:37:45;0.50;;;0.30;;
24159;SDS011;62385;41.594;23.808;2023-04-25T15:40:13;0.68;;;0.30;;
24159;SDS011;62385;41.594;23.808;2023-04-25T15:42:42;9.35;;;5.18;;
24159;SDS011;62385;41.594;23.808;2023-04-25T15:45:09;23.20;;;9.00;;
24159;SDS011;62385;41.594;23.808;2023-04-25T15:47:36;2.83;;;1.52;;
24159;SDS011;62385;41.594;23.808;2023-04-25T15:50:03;9.05;;;2.22;;
24159;SDS011;62385;41.594;23.808;2023-04-25T15:52:33;0.50;;;0.40;;
24159;SDS011;62385;41.594;23.808;2023-04-25T15:55:00;0.43;;;0.30;;
24159;SDS011;62385;41.594;23.808;2023-04-25T15:57:27;0.82;;;0.70;;
24159;SDS011;62385;41.594;23.808;2023-04-25T15:59:52;0.55;;;0.20;;
24159;SDS011;62385;41.594;23.808;2023-04-25T16:02:18;0.20;;;0.10;;
24159;SDS011;62385;41.594;23.808;2023-04-25T16:04:44;0.43;;;0.30;;
24159;SDS011;62385;41.594;23.808;2023-04-25T16:07:11;0.68;;;0.28;;